Terminal Aerodrome Forecast
Issued by NWS

Home | Current Version | Previous Version | Text Only | Print | Product List | Glossary On
Versions: 1 2 3 4 5 6 7 8 9 10 11 12 13
000
FTUS44 KLZK 220500
TAFLLQ
TAF
KLLQ 220538Z 2206/2306 20004KT P6SM SCT250
     FM221000 20003KT P6SM SCT020
     FM221400 22007KT P6SM FEW040 SCT250
     FM230100 20004KT P6SM SCT250=

USA.gov is the U.S. government's official web portal to all federal, state and local government web resources and services.